AirNav   Air Wisconsin pilot careers
 
 958 users online  

00PA R J D Heliport
Coatesville, Pennsylvania, USA

GOING TO COATESVILLE?


FAA INFORMATION EFFECTIVE 20 JUNE 2019

Location

FAA Identifier: 00PA
Lat/Long: 39-56-56.0000N / 075-44-49.0000W
39-56.933333N / 075-44.816667W
39.9488889 / -75.7469444
(estimated)
Elevation: 402 ft. / 123 m (estimated)
Variation: 12W (1995)
From city: 6 miles SE of COATESVILLE, PA
Time zone: UTC -4 (UTC -5 during Standard Time)
Zip code: 19320

Heliport Operations

Heliport use: Private use. Permission required prior to landing
Activation date: 07/1999
Control tower: no
ARTCC: NEW YORK CENTER
FSS: WILLIAMSPORT FLIGHT SERVICE STATION
Attendance: UNATNDD
Segmented circle: no

Heliport Communications

WX AWOS-3 at MQS (6 nm W): 126.25 (610-384-6132)
WX AWOS-3T at OQN (8 nm E): 121.4 ((610) 692-6190)
WX ASOS at ILG (17 nm S): PHONE 302-328-1536
WX ASOS at PTW (20 nm NE): 119.425 (610-495-0823)

Nearby radio navigation aids

VOR radial/distance  VOR name  Freq  Var
MXEr307/4.0MODENA VORTAC113.2009W
DQOr348/17.5DUPONT VORTAC114.0010W
PTWr217/18.5POTTSTOWN VORTAC116.5009W
LRPr121/27.0LANCASTER VOR/DME117.3009W
OODr323/27.8WOODSTOWN VORTAC112.8010W
ETXr193/38.0EAST TEXAS VOR/DME110.2009W

 
NDB name  Hdg/Dist  Freq  Var  ID
AMBLER255/23.727512WING .. -. --.

Heliport Services

Runway Information

Helipad H1

Dimensions: 80 x 80 ft. / 24 x 24 m
Surface: turf, in good condition
Traffic pattern: leftleft

Heliport Ownership and Management from official FAA records

Ownership: Privately-owned
Owner: NICOLE DESCHENES
101 YOUNGS RD
COATESVILLE, PA 19320
Phone 610-486-0555
Manager: RAYMOND J DESCHENES
101 YOUNGS RD
COATESVILLE, PA 19320
Phone 610-486-0555

Heliport Operational Statistics

Aircraft based on the field: 1
Helicopters: 1
    

Additional Remarks

A52-H1 RY H1 40 FT TREES 30 FT W & N.
FOR CD CTC PHILADELPHIA APCH AT 800-354-9884.

Instrument Procedures

There are no published instrument procedures at 00PA.

Some nearby airports with instrument procedures:

KMQS - Chester County G O Carlson Airport (6 nm W)
N57 - New Garden Airport (7 nm S)
KOQN - Brandywine Regional Airport (8 nm E)
KILG - New Castle Airport (17 nm S)
N47 - Pottstown Municipal Airport (19 nm N)
KPTW - Heritage Field Airport (20 nm NE)
 
Loc | Ops | Rwys | IFR | FBO | Links
Com | Nav | Svcs | Stats | Notes
Area around 00PA (R J D Heliport)
 
Road maps at: MapQuest Bing Google
 
Aerial photo
No photo
 
Sectional chart

 
Airport distance calculator
Flying to R J D Heliport? Find the distance to fly.

From to 00PA

Sunrise and sunset
Times for 20-Jun-2019
 Local
(UTC-4)
 Zulu
(UTC)
Morning civil twilight05:0209:02
Sunrise05:3509:35
Sunset20:3400:34
Evening civil twilight21:0701:07

Current date and time
Zulu (UTC)  21-Jun-2019 00:20:55
Local (UTC-4)  20-Jun-2019 20:20:55
 
METAR
KMQS 
6nm W 
202355Z AUTO 28005KT 10SM CLR 25/20 A2954 RMK AO2
KOQN 
8nm E 
202355Z AUTO 00000KT 10SM CLR 26/20 A2951 RMK AO2
KILG 
18nm S 
202351Z 30007KT 10SM +RA CLR 27/21 A2950 RMK AO2 SLP989 60034 T02670211 10300 20233 53002 PNO $
KPTW 
19nm NE 
202354Z AUTO 00000KT 9SM CLR 25/19 A2951 RMK AO2 SLP989 60029 T02500194 10272 20222 55001
TAF
KILG 
18nm S 
202056Z 2021/2118 24008KT P6SM SHRA FEW015 TEMPO 2021/2022 2SM TSRA OVC015CB FM210000 26008KT 6SM SHRA VCTS BKN025CB FM210600 25006KT 6SM BR BKN025 FM211000 30010KT 6SM SHRA BR BKN015 FM211400 32013G18KT 6SM BR BKN025 FM211700 32015G25KT P6SM BKN040
NOTAMs
Click for the latest NOTAMs
NOTAMs are issued by the DoD/FAA and will open in a separate window not controlled by AirNav.

 

 
 

Would you like to see your business listed on this page?

 If your business provides an interesting product or service to pilots, flight crews, aircraft, or users of the R J D Heliport, you should consider listing it here.  To start the listing process, click on the button below
 
Add a business
 

Other Pages about R J D Heliport

Update a link
 
Copyright © AirNav, LLC. All rights reserved. Privacy Policy  Contact